Aérodrome :
LOGIN :

S'inscrire | Disclaimer

   EN    FR    IT 

 










Légende :    VFR   VFR Marginal   IFR   IFR Intensif   IFR Très Intensif
Visi : 
Plafond : 
>= 8 km
>= 3000ft
5 à 8 km
1000 à 3000 ft
1500m à 5 km
500 à 1000 ft
800 à 1500m
200 à 500 ft
< 800m
< 200 ft
Symboles :   Orages  Brouillard  Fortes neiges  Fortes précipitations  Vent > 20 kt
SIGMETs :   Divers  Orages  Givrage  Turbulence  Onde Orograph.  Cendres Volcan.







- Altitude de l'aérodrome : 778 ft
- Code IATA : BRQ


LKTB - Brno-Turany

DERNIER METAR :
  • 232300Z 02003KT CAVOK 13/06 Q1019 NOSIG

METARs EXPIRÉS :
  • 232230Z VRB02KT CAVOK 14/06 Q1019 NOSIG
  • 232200Z 36003KT 340V040 CAVOK 14/06 Q1019 NOSIG
  • 232130Z 03003KT 350V050 CAVOK 16/06 Q1019 NOSIG
  • 232100Z 35005KT CAVOK 16/06 Q1019 NOSIG
  • 232030Z 34003KT CAVOK 16/06 Q1019 NOSIG

TAF TAF LKTB
Valide du 23 à 18h jusqu'au 25 à 00h UTC


231700Z 2318/2500 VRB02KT CAVOK
BECMG 2408/2410 20007KT
BECMG 2418/2420 VRB02KT
Pas de NOTAMs connus pour ce terrain.



MET'MAP, la Météo Aéronautique d'un coup d'oeil ! - Copyright ORBIFLY Décembre 2007 - Disclaimer

ORBIFLY MET'MAP TEAM :

Programmation & Développement : Alexandra Zaïnal
Conception & Développement : Baudouin d'Aumeries
Co-Programmation & Développement : Marc-Olivier Méhu
Soutien technique & logistique : Manuel Goepfert

Contact : metmap@orbifly.com




SOURCES & CREDITS :

   NOAA